La Harpe, Kansas
Current Conditions -  °F | °C
As of 8:52 AM on Monday 24 Nov 2014 (Local Time) from KCNU Reporting Station
Clear Clear  
Wind Chill: 31°   Ceiling: Unl
Heat Index: 40°   Visibility: 10mi
Dew Point: 27°   Wind: 16mph
Humidity: 60%   Direction: 270°W
Pressure: 29.8"   Gusts: NA
Location:  37.92°N, 95.3°W
Report Text: KCNU 241452Z AUTO 27014KT 10SM CLR 04/M03 A2980 RMK AO2 SLP093 T00441028 53023
Loading
Personal Weather Stations






























Interactive Weather Map New forecast layout! Learn more

10-Day Weather Forecast

Advertisements
Track Severe Weather on mobile